Terminal Aerodrome Forecast
Issued by NWS

Home | Current Version | Previous Version | Text Only | Print | Product List | Glossary On
Versions: 1 2 3 4 5 6 7 8 9 10 11 12 13 14 15 16 17 18
000
FTAK31 PANC 261128
TAFACD
TAF
PACD 261128Z 2612/2712 17015KT P6SM FEW015 SCT150
     FM270400 20007KT P6SM SCT015 OVC022
     FM271000 24012KT P6SM VCSH OVC025=

USA.gov is the U.S. government's official web portal to all federal, state and local government web resources and services.